createdAt,value
2022-10-22T00:01:52.323Z,95141.34
2022-10-22T00:04:20.764Z,95233.47
2022-10-22T00:06:49.147Z,95187.28
2022-10-22T00:09:19.128Z,95228.94
2022-10-22T00:11:47.797Z,95244.13
2022-10-22T00:14:16.498Z,95208.66
2022-10-22T00:16:44.826Z,95194.72
2022-10-22T00:19:13.652Z,95229.78
2022-10-22T00:21:42.522Z,95225.75
2022-10-22T00:24:10.920Z,95229.28
2022-10-22T00:26:40.732Z,95232.31
2022-10-22T00:29:09.190Z,95167.41
2022-10-22T00:31:39.640Z,95233.41
2022-10-22T00:34:08.140Z,95226.69
2022-10-22T00:36:36.943Z,95239.16
2022-10-22T00:39:05.402Z,95240.25
2022-10-22T00:41:33.821Z,95195.88
2022-10-22T00:44:05.679Z,95242.03
2022-10-22T00:46:34.224Z,95250.94
2022-10-22T00:49:05.303Z,95254.06
2022-10-22T00:51:36.702Z,95267.41
2022-10-22T00:54:08.830Z,95272.41
2022-10-22T00:56:37.266Z,95265.03
2022-10-22T01:01:37.483Z,95272.63
2022-10-22T01:04:06.436Z,95259.00
2022-10-22T01:06:35.372Z,95258.88
2022-10-22T01:09:14.298Z,95241.16
2022-10-22T01:11:56.376Z,95269.81
2022-10-22T01:14:34.656Z,95261.47
2022-10-22T01:17:09.062Z,95248.75
2022-10-22T01:20:07.046Z,95258.28
2022-10-22T01:22:41.864Z,95259.41
2022-10-22T01:25:18.623Z,95239.34
2022-10-22T01:28:03.057Z,95187.00
2022-10-22T01:30:33.096Z,95245.16
2022-10-22T01:33:04.837Z,95225.94
2022-10-22T01:35:38.423Z,95229.13
2022-10-22T01:38:10.351Z,95225.53
2022-10-22T01:40:39.620Z,95201.16
2022-10-22T01:43:10.362Z,95217.06
2022-10-22T01:45:43.754Z,95211.97
2022-10-22T01:48:28.227Z,95211.66
2022-10-22T01:51:14.577Z,95178.81
2022-10-22T01:53:51.154Z,95205.25
2022-10-22T01:56:30.272Z,95083.97
2022-10-22T01:59:07.444Z,95200.53
2022-10-22T02:01:45.209Z,95193.50
2022-10-22T02:04:19.776Z,95199.22
2022-10-22T02:06:51.597Z,95164.03
2022-10-22T02:09:23.473Z,95191.44
2022-10-22T02:11:52.940Z,95083.66
2022-10-22T02:14:22.816Z,95174.81
2022-10-22T02:16:52.831Z,95165.00
2022-10-22T02:19:26.902Z,95188.44
2022-10-22T02:21:56.467Z,95202.88
2022-10-22T02:24:26.314Z,95210.09
2022-10-22T02:27:04.583Z,95185.25
2022-10-22T02:29:39.737Z,95191.84
2022-10-22T02:32:13.649Z,95188.94
2022-10-22T02:34:42.714Z,95185.16
2022-10-22T02:37:11.963Z,95185.03
2022-10-22T02:39:41.265Z,95200.25
2022-10-22T02:42:10.670Z,95214.94
2022-10-22T02:44:39.294Z,95207.91
2022-10-22T02:47:09.090Z,95209.53
2022-10-22T02:49:37.632Z,95230.75
2022-10-22T02:52:06.155Z,95224.97
2022-10-22T02:54:34.849Z,95215.94
2022-10-22T02:57:03.309Z,95233.56
2022-10-22T02:59:31.666Z,95225.16
2022-10-22T03:01:59.941Z,95231.56
2022-10-22T03:04:30.059Z,95229.72
2022-10-22T03:06:58.428Z,95219.63
2022-10-22T03:09:26.874Z,95226.75
2022-10-22T03:11:55.257Z,95225.66
2022-10-22T03:14:24.059Z,95222.63
2022-10-22T03:16:52.695Z,95206.94
2022-10-22T03:19:21.127Z,95236.34
2022-10-22T03:21:54.515Z,95233.56
2022-10-22T03:24:24.111Z,95220.94
2022-10-22T03:26:54.192Z,95211.31
2022-10-22T03:29:25.183Z,95054.88
2022-10-22T03:31:54.705Z,95212.59
2022-10-22T03:34:23.734Z,95193.00
2022-10-22T03:36:54.771Z,95223.44
2022-10-22T03:39:23.651Z,95230.94
2022-10-22T03:41:53.988Z,95217.34
2022-10-22T03:44:23.812Z,95236.06
2022-10-22T03:46:52.287Z,95262.47
2022-10-22T03:49:20.631Z,95253.00
2022-10-22T03:51:48.990Z,95226.56
2022-10-22T03:54:19.540Z,95252.00
2022-10-22T03:56:47.838Z,95165.44
2022-10-22T03:59:16.557Z,95186.88
2022-10-22T04:01:44.913Z,95264.47
2022-10-22T04:04:13.257Z,95254.84
2022-10-22T04:06:41.627Z,95177.63
2022-10-22T04:09:10.131Z,95297.31
2022-10-22T04:11:39.878Z,95304.78
2022-10-22T04:14:08.339Z,95298.34
2022-10-22T04:16:36.611Z,95299.75
2022-10-22T04:19:05.100Z,95277.44
2022-10-22T04:21:33.614Z,95305.34
2022-10-22T04:24:02.632Z,95286.66
2022-10-22T04:26:31.052Z,95299.25
2022-10-22T04:29:01.569Z,95290.72
2022-10-22T04:31:30.068Z,95282.78
2022-10-22T04:34:01.186Z,95268.38
2022-10-22T04:36:30.554Z,95272.44
2022-10-22T04:39:00.614Z,95263.59
2022-10-22T04:41:30.803Z,95282.63
2022-10-22T04:44:01.282Z,95285.03
2022-10-22T04:46:32.019Z,95250.31
2022-10-22T04:49:00.814Z,95245.91
2022-10-22T04:51:29.599Z,95290.25
2022-10-22T04:53:58.196Z,95294.06
2022-10-22T04:56:29.106Z,95269.16
2022-10-22T04:58:59.784Z,95294.56
2022-10-22T05:01:32.124Z,95289.66
2022-10-22T05:04:02.655Z,95289.13
2022-10-22T05:06:33.107Z,95285.13
2022-10-22T05:09:03.552Z,95276.53
2022-10-22T05:11:34.180Z,95282.22
2022-10-22T05:14:04.963Z,95277.00
2022-10-22T05:16:36.224Z,95199.69
2022-10-22T05:19:05.429Z,95291.50
2022-10-22T05:21:34.124Z,95292.63
2022-10-22T05:24:04.210Z,95297.22
2022-10-22T05:26:32.778Z,95294.81
2022-10-22T05:29:01.204Z,95301.84
2022-10-22T05:31:30.109Z,95312.66
2022-10-22T05:33:59.952Z,95307.69
2022-10-22T05:36:28.475Z,95315.25
2022-10-22T05:38:56.827Z,95321.53
2022-10-22T05:41:27.596Z,95306.25
2022-10-22T05:43:57.251Z,95330.13
2022-10-22T05:46:28.195Z,95304.50
2022-10-22T05:48:58.365Z,95334.72
2022-10-22T05:51:30.118Z,95293.34
2022-10-22T05:54:00.109Z,95347.81
2022-10-22T05:56:30.122Z,95339.69
2022-10-22T05:58:58.568Z,95350.94
2022-10-22T06:01:29.191Z,95350.94
2022-10-22T06:03:58.755Z,95356.38
2022-10-22T06:06:31.796Z,95374.94
2022-10-22T06:09:04.319Z,95373.09
2022-10-22T06:11:35.113Z,95369.84
2022-10-22T06:14:04.051Z,95380.13
2022-10-22T06:16:33.243Z,95404.19
2022-10-22T06:19:02.300Z,95366.69
2022-10-22T06:21:33.164Z,95413.81
2022-10-22T06:24:02.973Z,95421.91
2022-10-22T06:26:31.802Z,95423.03
2022-10-22T06:29:00.410Z,95427.63
2022-10-22T06:31:29.882Z,95392.19
2022-10-22T06:33:58.427Z,95434.66
2022-10-22T06:36:26.885Z,95441.97
2022-10-22T06:38:57.796Z,95444.66
2022-10-22T06:41:28.958Z,95453.88
2022-10-22T06:43:58.975Z,95452.06
2022-10-22T06:46:27.520Z,95460.44
2022-10-22T06:48:58.155Z,95425.00
2022-10-22T06:51:27.648Z,95463.69
2022-10-22T06:53:58.500Z,95451.75
2022-10-22T06:56:30.512Z,95451.47
2022-10-22T06:59:00.772Z,95448.22
2022-10-22T07:01:31.288Z,95443.63
2022-10-22T07:04:00.094Z,95432.00
2022-10-22T07:06:29.974Z,95406.53
2022-10-22T07:09:01.456Z,95418.72
2022-10-22T07:11:31.645Z,95407.38
2022-10-22T07:14:01.363Z,95384.13
2022-10-22T07:16:32.369Z,95401.97
2022-10-22T07:19:01.285Z,95403.28
2022-10-22T07:21:30.246Z,95407.81
2022-10-22T07:24:01.772Z,95392.94
2022-10-22T07:26:31.232Z,95423.88
2022-10-22T07:28:59.919Z,95407.97
2022-10-22T07:31:28.591Z,95448.72
2022-10-22T07:33:57.062Z,95462.34
2022-10-22T07:36:25.442Z,95485.22
2022-10-22T07:38:56.724Z,95474.34
2022-10-22T07:41:27.248Z,95484.13
2022-10-22T07:43:56.763Z,95485.00
2022-10-22T07:46:26.874Z,95491.72
2022-10-22T07:48:55.576Z,95483.69
2022-10-22T07:51:24.164Z,95289.38
2022-10-22T07:53:52.752Z,95477.69
2022-10-22T07:56:21.150Z,95479.94
2022-10-22T07:58:51.044Z,95481.06
2022-10-22T08:01:19.594Z,95499.69
2022-10-22T08:03:49.068Z,95503.44
2022-10-22T08:06:17.944Z,95494.63
2022-10-22T08:08:47.103Z,95500.50
2022-10-22T08:11:15.549Z,95489.69
2022-10-22T08:13:45.542Z,95496.13
2022-10-22T08:16:16.269Z,95506.94
2022-10-22T08:18:44.830Z,95518.19
2022-10-22T08:21:13.727Z,95502.84
2022-10-22T08:23:42.082Z,95513.34
2022-10-22T08:26:10.898Z,95517.09
2022-10-22T08:28:39.413Z,95509.25
2022-10-22T08:31:08.971Z,95503.13
2022-10-22T08:33:38.983Z,95470.72
2022-10-22T08:36:08.182Z,95506.72
2022-10-22T08:38:37.125Z,95506.22
2022-10-22T08:41:11.658Z,95510.81
2022-10-22T08:44:12.526Z,95519.53
2022-10-22T08:46:52.751Z,95520.16
2022-10-22T08:49:26.013Z,95524.19
2022-10-22T08:51:54.763Z,95525.44
2022-10-22T08:54:34.948Z,95531.22
2022-10-22T08:57:21.145Z,95534.22
2022-10-22T08:59:55.991Z,95525.00
2022-10-22T09:02:35.783Z,95530.63
2022-10-22T09:05:17.803Z,95544.66
2022-10-22T09:07:50.569Z,95541.38
2022-10-22T09:10:21.756Z,95540.34
2022-10-22T09:12:50.422Z,95547.66
2022-10-22T09:15:21.581Z,95548.00
2022-10-22T09:18:08.214Z,95554.38
2022-10-22T09:20:47.134Z,95553.44
2022-10-22T09:23:26.706Z,95550.56
2022-10-22T09:25:55.825Z,95546.09
2022-10-22T09:28:24.531Z,95441.00
2022-10-22T09:33:33.356Z,95523.53
2022-10-22T09:36:04.849Z,95528.22
2022-10-22T09:38:35.930Z,95543.66
2022-10-22T09:41:05.161Z,95550.50
2022-10-22T09:43:34.033Z,95540.13
2022-10-22T09:46:03.994Z,95555.19
2022-10-22T09:48:35.279Z,95556.72
2022-10-22T09:51:16.614Z,95559.56
2022-10-22T09:53:46.364Z,95568.44
2022-10-22T09:56:22.783Z,95571.34
2022-10-22T09:58:52.733Z,95566.09
2022-10-22T10:01:24.784Z,95576.16
2022-10-22T10:03:53.499Z,95576.47
2022-10-22T10:06:24.792Z,95584.63
2022-10-22T10:08:53.258Z,95589.94
2022-10-22T10:11:30.039Z,95601.91
2022-10-22T10:14:10.155Z,95534.38
2022-10-22T10:16:44.634Z,95598.94
2022-10-22T10:19:28.064Z,95592.78
2022-10-22T10:22:06.361Z,95590.16
2022-10-22T10:24:46.811Z,95607.72
2022-10-22T10:27:25.890Z,95633.41
2022-10-22T10:30:03.903Z,95604.72
2022-10-22T10:32:53.211Z,95609.34
2022-10-22T10:35:27.248Z,95545.03
2022-10-22T10:38:16.045Z,95565.75
2022-10-22T10:40:49.836Z,95606.25
2022-10-22T10:43:23.495Z,95606.75
2022-10-22T10:45:57.109Z,95612.16
2022-10-22T10:48:38.395Z,95608.13
2022-10-22T10:51:24.524Z,95602.72
2022-10-22T10:54:19.056Z,95613.78
2022-10-22T10:56:51.957Z,95619.22
2022-10-22T10:59:27.911Z,95618.19
2022-10-22T11:02:13.088Z,95615.38
2022-10-22T11:05:05.014Z,95611.56
2022-10-22T11:07:42.546Z,95610.28
2022-10-22T11:10:26.497Z,95576.00
2022-10-22T11:12:58.475Z,95609.34
2022-10-22T11:15:34.054Z,95603.53
2022-10-22T11:18:08.851Z,95612.63
2022-10-22T11:20:51.094Z,95610.28
2022-10-22T11:23:27.482Z,95609.03
2022-10-22T11:25:57.403Z,95574.34
2022-10-22T11:28:30.341Z,95601.41
2022-10-22T11:31:03.349Z,95599.44
2022-10-22T11:33:39.967Z,95593.97
2022-10-22T11:36:10.135Z,95591.41
2022-10-22T11:38:39.053Z,95593.41
2022-10-22T11:41:14.294Z,95593.88
2022-10-22T11:44:01.157Z,95574.47
2022-10-22T11:46:40.083Z,95585.13
2022-10-22T11:49:20.331Z,95600.81
2022-10-22T11:51:49.344Z,95595.38
2022-10-22T11:54:43.073Z,95595.38
2022-10-22T11:57:27.580Z,95569.53
2022-10-22T12:00:00.222Z,95595.50
2022-10-22T12:02:42.266Z,95596.13
2022-10-22T12:05:44.348Z,95603.41
2022-10-22T12:08:26.194Z,95592.69
2022-10-22T12:11:04.502Z,95590.78
2022-10-22T12:13:52.975Z,95593.50
2022-10-22T12:16:32.443Z,95590.31
2022-10-22T12:19:16.941Z,95539.56
2022-10-22T12:21:50.095Z,95583.63
2022-10-22T12:24:22.404Z,95562.50
2022-10-22T12:26:52.878Z,95580.44
2022-10-22T12:29:26.790Z,95583.25
2022-10-22T12:31:56.347Z,95590.94
2022-10-22T12:34:26.258Z,95525.31
2022-10-22T12:36:55.306Z,95569.03
2022-10-22T12:39:26.764Z,95579.25
2022-10-22T12:41:56.220Z,95579.56
2022-10-22T12:44:26.116Z,95579.91
2022-10-22T12:46:57.111Z,95586.63
2022-10-22T12:49:33.579Z,95580.44
2022-10-22T12:52:03.976Z,95574.13
2022-10-22T12:54:35.523Z,95508.91
2022-10-22T12:57:03.986Z,95563.13
2022-10-22T12:59:37.001Z,95546.91
2022-10-22T13:02:17.786Z,95526.06
2022-10-22T13:05:15.334Z,95566.22
2022-10-22T13:07:48.515Z,95567.84
2022-10-22T13:10:21.133Z,95577.75
2022-10-22T13:12:55.617Z,95577.09
2022-10-22T13:15:35.404Z,95562.31
2022-10-22T13:18:05.690Z,95587.97
2022-10-22T13:20:37.562Z,95581.72
2022-10-22T13:23:07.567Z,95574.00
2022-10-22T13:25:38.294Z,95582.25
2022-10-22T13:28:21.166Z,95558.22
2022-10-22T13:30:56.874Z,95561.50
2022-10-22T13:33:28.193Z,95593.25
2022-10-22T13:35:57.734Z,95593.88
2022-10-22T13:38:28.120Z,95598.63
2022-10-22T13:40:57.255Z,95604.75
2022-10-22T13:43:26.524Z,95606.91
2022-10-22T13:45:59.822Z,95606.22
2022-10-22T13:48:30.498Z,95580.72
2022-10-22T13:50:59.203Z,95601.03
2022-10-22T13:53:30.230Z,95600.53
2022-10-22T13:55:58.656Z,95618.94
2022-10-22T13:58:26.981Z,95614.13
2022-10-22T14:00:58.657Z,95620.66
2022-10-22T14:03:31.609Z,95618.75
2022-10-22T14:06:00.155Z,95617.31
2022-10-22T14:08:29.564Z,95625.47
2022-10-22T14:10:57.958Z,95624.84
2022-10-22T14:13:26.822Z,95621.03
2022-10-22T14:15:56.554Z,95606.19
2022-10-22T14:18:29.100Z,95622.75
2022-10-22T14:21:00.044Z,95633.63
2022-10-22T14:23:30.838Z,95556.06
2022-10-22T14:25:59.977Z,95627.78
2022-10-22T14:28:29.658Z,95632.94
2022-10-22T14:31:01.955Z,95633.22
2022-10-22T14:33:33.371Z,95627.31
2022-10-22T14:36:02.453Z,95629.22
2022-10-22T14:38:31.290Z,95637.34
2022-10-22T14:41:01.687Z,95639.59
2022-10-22T14:43:31.984Z,95580.22
2022-10-22T14:46:01.735Z,95596.50
2022-10-22T14:48:30.528Z,95635.88
2022-10-22T14:50:58.935Z,95634.56
2022-10-22T14:53:27.319Z,95603.53
2022-10-22T14:55:59.209Z,95630.06
2022-10-22T14:58:27.687Z,95626.53
2022-10-22T15:00:56.068Z,95513.91
2022-10-22T15:03:25.974Z,95619.00
2022-10-22T15:05:56.099Z,95639.72
2022-10-22T15:08:24.556Z,95640.22
2022-10-22T15:11:02.822Z,95637.91
2022-10-22T15:13:31.973Z,95632.88
2022-10-22T15:16:00.863Z,95601.81
2022-10-22T15:18:31.052Z,95650.88
2022-10-22T15:21:01.050Z,95639.25
2022-10-22T15:23:30.179Z,95643.91
2022-10-22T15:25:59.164Z,95633.06
2022-10-22T15:28:27.679Z,95643.53
2022-10-22T15:30:56.720Z,95648.47
2022-10-22T15:33:25.166Z,95652.16
2022-10-22T15:35:55.038Z,95623.81
2022-10-22T15:41:05.311Z,95654.69
2022-10-22T15:43:34.415Z,95669.75
2022-10-22T15:46:12.594Z,95667.44
2022-10-22T15:48:41.456Z,95674.78
2022-10-22T15:51:13.590Z,95680.72
2022-10-22T15:53:42.542Z,95681.31
2022-10-22T15:56:13.064Z,95658.88
2022-10-22T15:58:41.501Z,95687.94
2022-10-22T16:01:12.039Z,95661.78
2022-10-22T16:03:40.991Z,95687.72
2022-10-22T16:06:09.848Z,95685.88
2022-10-22T16:08:40.247Z,95710.03
2022-10-22T16:11:08.902Z,95708.50
2022-10-22T16:13:37.742Z,95707.59
2022-10-22T16:16:08.286Z,95718.66
2022-10-22T16:18:36.746Z,95721.84
2022-10-22T16:21:05.309Z,95716.53
2022-10-22T16:23:33.781Z,95719.84
2022-10-22T16:26:04.475Z,95725.75
2022-10-22T16:31:09.050Z,95726.44
2022-10-22T16:33:41.555Z,95721.63
2022-10-22T16:36:16.698Z,95728.75
2022-10-22T16:38:45.863Z,95727.94
2022-10-22T16:41:16.908Z,95680.28
2022-10-22T16:43:47.208Z,95724.78
2022-10-22T16:46:15.835Z,95739.44
2022-10-22T16:48:47.055Z,95734.00
2022-10-22T16:51:17.328Z,95743.50
2022-10-22T16:53:45.921Z,95742.44
2022-10-22T16:56:17.883Z,95747.66
2022-10-22T16:58:48.403Z,95747.38
2022-10-22T17:01:18.282Z,95749.06
2022-10-22T17:03:47.266Z,95715.34
2022-10-22T17:06:16.441Z,95748.03
2022-10-22T17:08:45.082Z,95736.88
2022-10-22T17:11:18.037Z,95760.00
2022-10-22T17:13:48.912Z,95753.56
2022-10-22T17:16:19.665Z,95756.38
2022-10-22T17:18:49.001Z,95748.28
2022-10-22T17:21:18.049Z,95752.91
2022-10-22T17:23:46.907Z,95730.78
2022-10-22T17:26:19.734Z,95737.44
2022-10-22T17:28:48.389Z,95756.22
2022-10-22T17:31:19.786Z,95762.19
2022-10-22T17:33:49.368Z,95732.16
2022-10-22T17:36:19.408Z,95773.38
2022-10-22T17:38:50.828Z,95773.72
2022-10-22T17:41:22.974Z,95770.59
2022-10-22T17:43:51.532Z,95770.13
2022-10-22T17:46:21.945Z,95732.63
2022-10-22T17:48:51.855Z,95778.88
2022-10-22T17:51:21.746Z,95770.28
2022-10-22T17:53:51.768Z,95783.38
2022-10-22T17:56:24.189Z,95783.41
2022-10-22T17:58:52.988Z,95775.59
2022-10-22T18:01:23.745Z,95755.00
2022-10-22T18:03:52.697Z,95767.63
2022-10-22T18:06:22.459Z,95772.19
2022-10-22T18:11:32.083Z,95772.78
2022-10-22T18:14:00.940Z,95777.16
2022-10-22T18:16:31.115Z,95773.94
2022-10-22T18:19:01.171Z,95783.16
2022-10-22T18:21:32.796Z,95777.75
2022-10-22T18:24:02.584Z,95776.13
2022-10-22T18:26:32.974Z,95774.50
2022-10-22T18:29:01.353Z,95781.00
2022-10-22T18:31:30.820Z,95768.06
2022-10-22T18:34:00.361Z,95778.63
2022-10-22T18:36:30.878Z,95773.56
2022-10-22T18:39:02.827Z,95782.22
2022-10-22T18:41:34.728Z,95773.09
2022-10-22T18:44:06.195Z,95772.34
2022-10-22T18:46:38.519Z,95775.00
2022-10-22T18:49:08.679Z,95780.72
2022-10-22T18:51:38.578Z,95703.25
2022-10-22T18:54:22.134Z,95774.78
2022-10-22T18:56:58.070Z,95773.72
2022-10-22T18:59:28.549Z,95777.50
2022-10-22T19:01:59.988Z,95784.56
2022-10-22T19:04:33.599Z,95784.56
2022-10-22T19:07:02.217Z,95791.13
2022-10-22T19:09:30.797Z,95784.88
2022-10-22T19:12:02.050Z,95795.22
2022-10-22T19:14:30.687Z,95791.09
2022-10-22T19:16:59.378Z,95787.56
2022-10-22T19:19:29.853Z,95792.72
2022-10-22T19:22:00.098Z,95781.19
2022-10-22T19:24:29.368Z,95770.19
2022-10-22T19:26:58.019Z,95807.81
2022-10-22T19:29:29.426Z,95813.78
2022-10-22T19:31:59.233Z,95821.88
2022-10-22T19:34:28.811Z,95824.59
2022-10-22T19:36:58.398Z,95819.19
2022-10-22T19:39:28.207Z,95818.38
2022-10-22T19:41:56.687Z,95814.84
2022-10-22T19:44:26.466Z,95814.03
2022-10-22T19:46:57.560Z,95807.31
2022-10-22T19:49:27.246Z,95818.13
2022-10-22T19:51:56.427Z,95816.50
2022-10-22T19:54:26.008Z,95824.09
2022-10-22T19:56:55.499Z,95824.66
2022-10-22T19:59:27.267Z,95831.16
2022-10-22T20:01:59.955Z,95850.09
2022-10-22T20:04:28.712Z,95843.88
2022-10-22T20:06:57.723Z,95847.94
2022-10-22T20:09:26.522Z,95844.72
2022-10-22T20:11:56.181Z,95844.72
2022-10-22T20:14:25.910Z,95847.13
2022-10-22T20:16:55.724Z,95802.47
2022-10-22T20:19:29.700Z,95847.44
2022-10-22T20:24:34.107Z,95852.03
2022-10-22T20:27:03.916Z,95853.91
2022-10-22T20:29:34.075Z,95850.66
2022-10-22T20:32:05.498Z,95846.28
2022-10-22T20:34:41.838Z,95850.31
2022-10-22T20:37:10.944Z,95849.06
2022-10-22T20:39:41.374Z,95845.50
2022-10-22T20:42:11.333Z,95854.38
2022-10-22T20:44:41.488Z,95837.66
2022-10-22T20:47:11.382Z,95651.97
2022-10-22T20:49:42.775Z,95833.31
2022-10-22T20:52:12.745Z,95837.09
2022-10-22T20:54:45.241Z,95830.06
2022-10-22T20:57:14.680Z,95839.28
2022-10-22T20:59:43.243Z,95831.94
2022-10-22T21:02:12.564Z,95834.66
2022-10-22T21:04:45.516Z,95829.53
2022-10-22T21:07:14.746Z,95827.66
2022-10-22T21:09:43.227Z,95829.25
2022-10-22T21:12:11.715Z,95835.47
2022-10-22T21:14:40.080Z,95831.69
2022-10-22T21:17:09.628Z,95837.09
2022-10-22T21:19:38.169Z,95832.75
2022-10-22T21:22:08.427Z,95833.88
2022-10-22T21:24:36.776Z,95834.38
2022-10-22T21:27:07.559Z,95841.41
2022-10-22T21:29:36.020Z,95824.75
2022-10-22T21:32:04.366Z,95840.34
2022-10-22T21:34:38.068Z,95854.94
2022-10-22T21:37:08.920Z,95826.94
2022-10-22T21:39:41.214Z,95842.53
2022-10-22T21:42:10.796Z,95841.50
2022-10-22T21:44:39.167Z,95835.56
2022-10-22T21:47:07.566Z,95837.75
2022-10-22T21:49:35.884Z,95835.59
2022-10-22T21:52:07.023Z,95842.63
2022-10-22T21:54:37.721Z,95848.38
2022-10-22T21:57:06.178Z,95848.63
2022-10-22T21:59:36.999Z,95847.56
2022-10-22T22:02:06.232Z,95842.72
2022-10-22T22:04:34.811Z,95845.19
2022-10-22T22:07:03.239Z,95848.72
2022-10-22T22:09:31.620Z,95846.56
2022-10-22T22:12:01.650Z,95817.50
2022-10-22T22:14:30.822Z,95801.91
2022-10-22T22:16:59.615Z,95852.56
2022-10-22T22:19:28.035Z,95847.69
2022-10-22T22:21:56.422Z,95847.72
2022-10-22T22:24:24.811Z,95825.09
2022-10-22T22:26:53.267Z,95836.94
2022-10-22T22:29:23.319Z,95835.59
2022-10-22T22:31:51.676Z,95835.63
2022-10-22T22:34:20.090Z,95817.59
2022-10-22T22:36:49.524Z,95836.16
2022-10-22T22:39:20.114Z,95832.13
2022-10-22T22:41:49.029Z,95834.88
2022-10-22T22:44:17.762Z,95828.91
2022-10-22T22:46:47.530Z,95822.19
2022-10-22T22:49:16.278Z,95783.94
2022-10-22T22:51:44.906Z,95813.81
2022-10-22T22:54:13.320Z,95807.34
2022-10-22T22:56:41.816Z,95807.59
2022-10-22T22:59:11.840Z,95806.56
2022-10-22T23:01:40.889Z,95795.22
2022-10-22T23:04:13.530Z,95805.22
2022-10-22T23:06:42.150Z,95762.69
2022-10-22T23:09:13.676Z,95786.09
2022-10-22T23:11:43.102Z,95800.94
2022-10-22T23:14:13.903Z,95796.06
2022-10-22T23:16:45.622Z,95799.03
2022-10-22T23:19:17.283Z,95806.31
2022-10-22T23:21:48.362Z,95793.38
2022-10-22T23:24:19.611Z,95806.31
2022-10-22T23:26:49.823Z,95804.16
2022-10-22T23:29:20.138Z,95802.28
2022-10-22T23:31:49.391Z,95810.13
2022-10-22T23:34:21.215Z,95762.16
2022-10-22T23:36:50.091Z,95797.19
2022-10-22T23:39:21.652Z,95800.72
2022-10-22T23:41:50.126Z,95797.75
2022-10-22T23:44:18.687Z,95780.47
2022-10-22T23:46:47.113Z,95783.72
2022-10-22T23:49:16.136Z,95778.84
2022-10-22T23:51:46.211Z,95778.56
2022-10-22T23:54:17.916Z,95779.38
2022-10-22T23:56:46.378Z,95777.75
